Vsevolozhsk, Russia
Current Conditions -  °F | °C
As of 10:30 AM on Tuesday 21 Oct 2014 (Local Time) from ULLI Reporting Station
Moderate Snow Moderate Snow  
Wind Chill: 27°   Ceiling: 700
Heat Index: 34°   Visibility: 0.75mi
Dew Point: 32°   Wind: 9mph
Humidity: 93%   Direction: 20°NNE
Pressure: 29.68"   Gusts: NA
Location:  60.02°N, 30.68°E
Report Text: ULLI 210730Z 02004MPS 350V050 1200 R10R/1200 R10L/P2000 SNBKN007 BKN016 OVC066 01/M00 Q1005 88290050 NOSIG
Loading
Personal Weather Stations






























Interactive Weather Map
Tropical Storm Tracking
New forecast layout! Learn more

10-Day Weather Forecast

Advertisements
Track Severe Weather on mobile